Terminal Aerodrome Forecast
Issued by NWS

Home | Current Version | Previous Version | Text Only | Print | Product List | Glossary On
Versions: 1 2 3 4 5 6 7 8 9 10 11 12 13 14 15 16 17 18 19 20 21 22 23 24 25 26 27 28 29 30 31 32 33 34 35 36 37 38
000
FTUS43 KDTX 232338
TAFPTK
TAF
KPTK 232338Z 2400/2424 13010KT 6SM -SHRA SCT025 OVC040
      TEMPO 2400/2402 4SM -SHRA BKN025
     FM240200 13010KT 4SM -SHRA BR SCT008 OVC025
      TEMPO 2402/2405 2SM RA BR BKN008
     FM240500 15015KT 2SM RA BR OVC004
     FM241100 21015G25KT 4SM -SHRA OVC008
     FM241400 21020G30KT 6SM -SHRA SCT025 BKN040
     FM241900 23030G40KT P6SM OVC025=

USA.gov is the U.S. government's official web portal to all federal, state and local government web resources and services.